Time;durP1;ratioP1;P1;durP2;ratioP2;P2;SDS_P1;SDS_P2;PMS_P1;PMS_P2;Temp;Humidity;BMP_temperature;BMP_pressure;BME280_temperature;BME280_humidity;BME280_pressure;Samples;Min_cycle;Max_cycle;Signal;HPM_P1;HPM_P2
2022/06/09 00:00:24;;;;;;;8.93;2.20;;;;;;;14.89;96.20;100066.13;6051913;28;20042;-66
2022/06/09 00:03:24;;;;;;;7.15;2.40;;;;;;;14.88;96.50;100075.16;6052048;28;20392;-65
2022/06/09 00:06:20;;;;;;;5.57;2.30;;;;;;;14.88;96.64;100080.47;6067610;28;20034;-66
2022/06/09 00:09:18;;;;;;;3.47;1.75;;;;;;;14.87;96.48;100084.16;6051892;28;20041;-65
2022/06/09 00:12:13;;;;;;;5.85;2.20;;;;;;;14.82;96.21;100083.91;6050881;28;20026;-66
2022/06/09 00:15:10;;;;;;;5.57;2.57;;;;;;;14.98;96.85;100083.66;6052072;28;20060;-66
2022/06/09 00:18:05;;;;;;;5.30;2.03;;;;;;;14.94;96.30;100090.41;6055370;28;20364;-66
2022/06/09 00:21:01;;;;;;;5.43;2.30;;;;;;;14.89;96.53;100095.50;6051489;28;20110;-66
2022/06/09 00:23:56;;;;;;;4.50;2.20;;;;;;;14.86;97.09;100098.53;6051187;28;20029;-66
2022/06/09 00:26:51;;;;;;;6.27;2.37;;;;;;;14.65;97.47;100091.31;6051136;28;20029;-67
2022/06/09 00:29:47;;;;;;;4.33;2.10;;;;;;;14.67;98.41;100088.47;6050528;28;20084;-67
2022/06/09 00:32:43;;;;;;;7.80;2.30;;;;;;;14.68;99.14;100093.59;6060044;28;20034;-67
2022/06/09 00:35:38;;;;;;;9.07;2.47;;;;;;;14.54;99.44;100082.97;6051136;28;20116;-67
2022/06/09 00:38:34;;;;;;;5.30;2.33;;;;;;;14.59;100.00;100083.25;6050783;28;20041;-67
2022/06/09 00:41:29;;;;;;;4.88;2.30;;;;;;;14.58;100.00;100082.41;6049701;28;20037;-67
2022/06/09 00:44:28;;;;;;;6.05;2.50;;;;;;;14.60;100.00;100090.22;6051313;28;20045;-66
2022/06/09 00:47:26;;;;;;;5.60;3.00;;;;;;;14.58;100.00;100089.59;6053791;28;20103;-67
2022/06/09 00:50:24;;;;;;;7.03;2.47;;;;;;;14.57;100.00;100079.91;6049834;28;20096;-66
2022/06/09 00:53:27;;;;;;;5.82;2.53;;;;;;;14.46;100.00;100083.09;6050598;28;20076;-66
2022/06/09 00:56:23;;;;;;;5.00;2.45;;;;;;;14.40;100.00;100089.16;6049434;28;20040;-67
2022/06/09 00:59:20;;;;;;;5.53;2.75;;;;;;;14.36;100.00;100086.03;6067891;28;20473;-67
2022/06/09 01:02:17;;;;;;;5.38;2.63;;;;;;;14.38;100.00;100096.53;6049450;28;20038;-66
2022/06/09 01:05:15;;;;;;;5.82;2.80;;;;;;;14.36;100.00;100086.03;6050371;28;20036;-67
2022/06/09 01:08:11;;;;;;;7.45;3.13;;;;;;;14.47;100.00;100095.41;6048531;28;20048;-67
2022/06/09 01:11:06;;;;;;;5.80;2.72;;;;;;;14.37;100.00;100089.53;6048493;28;20033;-66
2022/06/09 01:14:02;;;;;;;4.53;2.70;;;;;;;14.32;100.00;100093.56;6055520;28;20041;-67
2022/06/09 01:17:20;;;;;;;7.47;3.03;;;;;;;14.36;100.00;100103.88;6050015;28;20401;-67
2022/06/09 01:20:30;;;;;;;6.63;2.85;;;;;;;14.25;100.00;100097.13;6057055;28;20042;-67
2022/06/09 01:24:04;;;;;;;7.53;3.30;;;;;;;14.35;100.00;100103.03;6037999;28;20141;-67
2022/06/09 01:27:37;;;;;;;5.00;2.78;;;;;;;14.20;100.00;100111.03;6000439;28;20034;-66
2022/06/09 01:30:38;;;;;;;;;;;;;;;14.19;100.00;100112.03;6049760;28;20091;-67
2022/06/09 01:33:58;;;;;;;4.60;3.03;;;;;;;14.29;100.00;100104.56;6072036;28;19914;-66
2022/06/09 01:37:07;;;;;;;7.55;3.20;;;;;;;14.30;100.00;100111.56;6048473;28;20523;-66
2022/06/09 01:40:06;;;;;;;6.72;3.55;;;;;;;14.10;100.00;100104.31;6052221;28;20046;-66
2022/06/09 01:43:04;;;;;;;4.65;2.75;;;;;;;14.11;100.00;100111.28;6053184;28;20088;-66
2022/06/09 01:46:06;;;;;;;5.88;3.22;;;;;;;13.99;100.00;100102.09;6049827;28;20030;-66
2022/06/09 01:49:17;;;;;;;5.53;3.45;;;;;;;14.14;100.00;100117.09;6064234;28;20033;-66
2022/06/09 01:52:12;;;;;;;6.18;3.25;;;;;;;14.18;100.00;100113.06;6048664;28;20045;-66
2022/06/09 01:55:09;;;;;;;7.35;3.95;;;;;;;14.06;100.00;100103.00;6065304;28;20111;-66
2022/06/09 01:58:05;;;;;;;7.75;4.18;;;;;;;14.09;99.94;100111.47;6048030;28;20034;-66
2022/06/09 02:01:01;;;;;;;6.30;3.40;;;;;;;14.03;100.00;100111.38;6048088;28;20034;-66
2022/06/09 02:04:00;;;;;;;6.55;4.05;;;;;;;13.89;100.00;100107.69;6049117;28;20125;-66
2022/06/09 02:06:55;;;;;;;6.47;3.97;;;;;;;13.98;99.93;100111.09;6047775;28;20049;-66
2022/06/09 02:09:51;;;;;;;8.85;4.45;;;;;;;13.96;100.00;100113.97;6065274;28;20077;-66
2022/06/09 02:12:48;;;;;;;7.93;4.43;;;;;;;13.82;100.00;100124.59;6048330;28;20037;-66
2022/06/09 02:15:46;;;;;;;8.90;4.40;;;;;;;13.90;100.00;100129.84;6048496;28;20415;-66
2022/06/09 02:18:45;;;;;;;7.82;4.95;;;;;;;13.75;100.00;100129.00;6063739;28;20038;-66
2022/06/09 02:21:40;;;;;;;8.30;4.85;;;;;;;13.70;100.00;100129.53;6048546;28;20088;-66
2022/06/09 02:24:36;;;;;;;11.27;5.35;;;;;;;13.72;100.00;100127.53;6054429;28;20033;-66
2022/06/09 02:27:31;;;;;;;9.27;4.80;;;;;;;13.71;100.00;100137.34;6048782;28;20496;-66
2022/06/09 02:30:26;;;;;;;9.30;5.70;;;;;;;13.73;100.00;100147.81;6048740;28;20026;-66
2022/06/09 02:33:22;;;;;;;12.07;5.67;;;;;;;13.77;100.00;100154.47;6050600;28;20060;-66
2022/06/09 02:36:17;;;;;;;10.63;5.50;;;;;;;13.78;100.00;100148.09;6048774;28;20088;-66
2022/06/09 02:39:12;;;;;;;11.45;6.03;;;;;;;13.88;100.00;100148.69;6048944;28;20061;-66
2022/06/09 02:42:08;;;;;;;13.30;5.73;;;;;;;13.75;100.00;100147.66;6047983;28;20045;-66
2022/06/09 02:45:03;;;;;;;13.07;6.43;;;;;;;13.83;100.00;100135.09;6048810;28;20051;-66
2022/06/09 02:48:01;;;;;;;10.88;5.93;;;;;;;13.88;99.78;100158.53;6045569;28;20029;-66
2022/06/09 02:50:56;;;;;;;18.95;6.57;;;;;;;13.75;99.22;100148.50;6048136;28;20044;-66
2022/06/09 02:53:57;;;;;;;12.00;6.82;;;;;;;13.85;99.76;100138.38;6049022;28;20034;-66
2022/06/09 02:56:53;;;;;;;11.88;6.03;;;;;;;13.75;99.09;100137.00;6051970;28;20109;-66
2022/06/09 02:59:50;;;;;;;12.63;6.28;;;;;;;13.74;98.86;100138.81;6053047;28;20030;-66
2022/06/09 03:02:58;;;;;;;15.43;7.43;;;;;;;13.76;98.91;100143.97;6052562;28;20101;-66
2022/06/09 03:05:54;;;;;;;15.80;7.68;;;;;;;13.72;98.54;100148.84;6053098;28;20033;-66
2022/06/09 03:08:50;;;;;;;18.73;8.80;;;;;;;13.77;98.74;100149.13;6052982;28;20048;-66
2022/06/09 03:11:45;;;;;;;17.23;7.85;;;;;;;13.73;99.25;100142.50;6052477;28;20496;-65
2022/06/09 03:14:40;;;;;;;15.93;7.40;;;;;;;13.75;99.00;100156.47;6051597;28;20034;-65
2022/06/09 03:17:36;;;;;;;15.47;7.70;;;;;;;13.75;98.60;100159.16;6052653;28;20813;-65
2022/06/09 03:20:33;;;;;;;17.48;8.10;;;;;;;13.76;98.19;100157.28;6052524;28;20025;-66
2022/06/09 03:23:29;;;;;;;17.48;8.52;;;;;;;13.82;98.20;100181.41;6052448;28;20034;-66
2022/06/09 03:26:25;;;;;;;21.77;8.73;;;;;;;13.69;98.15;100181.19;6053454;28;20037;-65
2022/06/09 03:29:20;;;;;;;18.02;7.97;;;;;;;13.73;98.58;100183.28;6054540;28;20034;-65
2022/06/09 03:32:16;;;;;;;16.65;8.23;;;;;;;13.82;98.44;100188.56;6051700;28;20034;-66
2022/06/09 03:35:11;;;;;;;17.40;8.00;;;;;;;13.68;97.96;100171.50;6060010;28;20477;-66
2022/06/09 03:38:06;;;;;;;23.10;7.85;;;;;;;13.68;98.04;100174.19;6054972;28;20065;-65
2022/06/09 03:41:02;;;;;;;17.60;8.70;;;;;;;13.69;97.97;100168.69;6056677;28;20030;-65
2022/06/09 03:43:57;;;;;;;22.98;9.70;;;;;;;13.72;97.57;100178.16;6052592;28;20038;-66
2022/06/09 03:46:53;;;;;;;19.83;8.63;;;;;;;13.84;98.30;100179.38;6052137;28;20026;-66
2022/06/09 03:49:48;;;;;;;18.03;8.70;;;;;;;13.88;97.77;100186.00;6051469;28;20064;-65
2022/06/09 03:52:44;;;;;;;22.02;10.43;;;;;;;13.94;97.37;100184.47;6051428;28;20088;-66
2022/06/09 03:55:39;;;;;;;16.03;7.80;;;;;;;13.90;97.23;100178.66;6051948;28;20065;-66
2022/06/09 03:58:34;;;;;;;20.23;8.67;;;;;;;13.87;96.52;100189.69;6051822;28;20477;-65
2022/06/09 04:01:30;;;;;;;19.40;8.93;;;;;;;14.04;97.11;100209.84;6051467;28;20041;-66
2022/06/09 04:04:25;;;;;;;19.47;8.77;;;;;;;13.98;96.46;100207.91;6051386;28;20288;-66
2022/06/09 04:07:21;;;;;;;19.08;9.23;;;;;;;13.94;96.27;100206.59;6050226;28;20679;-66
2022/06/09 04:10:22;;;;;;;20.95;9.57;;;;;;;14.06;96.55;100215.81;6051243;28;20037;-65
2022/06/09 04:13:17;;;;;;;18.10;8.65;;;;;;;14.05;96.06;100208.81;6051783;28;20038;-66
2022/06/09 04:16:21;;;;;;;22.55;9.40;;;;;;;14.18;96.15;100224.22;6051728;28;20036;-65
2022/06/09 04:19:17;;;;;;;22.95;8.45;;;;;;;14.19;95.24;100224.03;6051126;28;20056;-66
2022/06/09 04:22:12;;;;;;;17.38;8.90;;;;;;;14.19;94.74;100236.53;6050445;28;20029;-66
2022/06/09 04:25:08;;;;;;;17.38;7.57;;;;;;;14.28;94.83;100230.97;6052046;28;20109;-65
2022/06/09 04:28:04;;;;;;;16.17;9.05;;;;;;;14.45;94.52;100241.50;6053642;28;20120;-65
2022/06/09 04:30:59;;;;;;;22.38;8.88;;;;;;;14.34;94.21;100231.28;6061888;28;20579;-66
2022/06/09 04:33:54;;;;;;;17.70;7.93;;;;;;;14.34;93.28;100231.28;6051350;28;20037;-66
2022/06/09 04:36:50;;;;;;;16.27;8.43;;;;;;;14.45;92.86;100238.81;6050284;28;20040;-65
2022/06/09 04:39:46;;;;;;;18.65;7.60;;;;;;;14.51;93.06;100244.25;6053983;28;20030;-66
2022/06/09 04:42:41;;;;;;;15.30;8.07;;;;;;;14.51;92.53;100236.25;6055111;28;20026;-65
2022/06/09 04:45:38;;;;;;;14.00;7.45;;;;;;;14.57;92.47;100242.69;6051158;28;20132;-66
2022/06/09 04:48:34;;;;;;;15.05;7.78;;;;;;;14.55;92.14;100237.53;6052605;28;20041;-66
2022/06/09 04:51:31;;;;;;;14.68;7.68;;;;;;;14.67;91.33;100245.94;6050345;28;20052;-66
2022/06/09 04:54:26;;;;;;;18.30;8.68;;;;;;;14.89;91.61;100248.47;6051670;28;20408;-66
2022/06/09 04:57:21;;;;;;;14.97;7.30;;;;;;;15.04;90.62;100236.97;6050944;28;20042;-66
2022/06/09 05:00:17;;;;;;;16.43;7.27;;;;;;;15.11;90.19;100246.72;6025118;28;20033;-66
2022/06/09 05:03:12;;;;;;;16.33;7.95;;;;;;;15.41;89.72;100255.50;6063922;28;20062;-66
2022/06/09 05:06:07;;;;;;;22.20;7.45;;;;;;;15.41;88.94;100256.31;6031126;28;20771;-66
2022/06/09 05:09:03;;;;;;;14.37;6.93;;;;;;;15.58;88.77;100248.94;6027346;28;20074;-66
2022/06/09 05:11:58;;;;;;;15.90;7.17;;;;;;;15.61;88.29;100266.44;6026128;28;20038;-65
2022/06/09 05:14:53;;;;;;;17.53;8.20;;;;;;;15.68;87.75;100268.16;6027234;28;20042;-66
2022/06/09 05:17:50;;;;;;;13.90;7.17;;;;;;;15.61;87.66;100261.94;6026409;28;20474;-65
2022/06/09 05:20:45;;;;;;;15.05;6.90;;;;;;;15.73;87.30;100270.28;6026248;28;20331;-65
2022/06/09 05:23:41;;;;;;;16.60;7.40;;;;;;;15.84;87.10;100277.81;6027868;28;20038;-66
2022/06/09 05:26:36;;;;;;;15.82;7.20;;;;;;;15.86;86.86;100286.47;6027340;28;20524;-66
2022/06/09 05:29:32;;;;;;;15.77;7.43;;;;;;;15.77;86.58;100292.94;6026582;28;20062;-65
2022/06/09 05:32:27;;;;;;;15.17;6.40;;;;;;;15.75;87.33;100292.31;6025969;28;20489;-66
2022/06/09 05:35:22;;;;;;;10.93;6.20;;;;;;;15.66;87.55;100312.97;6027653;28;20065;-66
2022/06/09 05:44:51;;;;;;;15.45;7.40;;;;;;;15.53;87.72;100314.66;6026386;28;20030;-65
2022/06/09 05:47:46;;;;;;;18.80;6.95;;;;;;;15.45;87.77;100316.41;6021924;28;20105;-65
2022/06/09 05:50:42;;;;;;;12.30;6.77;;;;;;;15.53;87.83;100320.00;6017194;28;20639;-66
2022/06/09 05:53:37;;;;;;;12.87;6.90;;;;;;;15.52;87.72;100316.50;6015618;28;20065;-65
2022/06/09 05:56:32;;;;;;;14.70;7.07;;;;;;;15.71;87.22;100325.78;6018220;28;20038;-65
2022/06/09 05:59:28;;;;;;;14.40;6.83;;;;;;;15.89;86.59;100328.88;6017060;28;20035;-65
2022/06/09 06:02:26;;;;;;;16.87;7.67;;;;;;;15.95;86.30;100333.47;6010975;28;20363;-65
2022/06/09 06:08:35;;;;;;;21.38;7.85;;;;;;;15.80;86.26;100352.22;6023659;28;20038;-65
2022/06/09 06:11:31;;;;;;;14.20;7.10;;;;;;;15.77;85.66;100357.94;6024141;28;20038;-65
2022/06/09 06:14:27;;;;;;;20.40;8.30;;;;;;;15.67;87.02;100345.88;6023881;28;20265;-66
2022/06/09 06:17:23;;;;;;;19.17;8.25;;;;;;;15.83;86.44;100361.72;6021415;28;20402;-66
2022/06/09 06:20:19;;;;;;;16.73;7.78;;;;;;;15.91;85.41;100358.91;6022019;28;20034;-66
2022/06/09 06:23:14;;;;;;;12.50;7.27;;;;;;;16.00;85.78;100373.84;6029688;28;20114;-65
2022/06/09 06:26:11;;;;;;;19.23;8.00;;;;;;;16.05;85.46;100366.91;6030944;28;20038;-65
2022/06/09 06:29:08;;;;;;;14.13;7.25;;;;;;;16.08;85.82;100366.53;6023710;28;20113;-65
2022/06/09 06:32:04;;;;;;;18.48;8.48;;;;;;;16.07;86.23;100372.06;6036044;28;20185;-65
2022/06/09 06:35:01;;;;;;;16.45;8.48;;;;;;;16.14;85.96;100375.66;6037411;28;20038;-65
2022/06/09 06:37:56;;;;;;;18.63;8.30;;;;;;;16.16;85.70;100378.94;6036630;28;20086;-65
2022/06/09 06:40:51;;;;;;;19.57;8.17;;;;;;;16.02;85.92;100387.84;6029733;28;20029;-65
2022/06/09 06:43:48;;;;;;;20.80;8.13;;;;;;;16.05;85.07;100390.97;6039205;28;20034;-65
2022/06/09 06:46:43;;;;;;;19.60;9.52;;;;;;;16.03;84.37;100395.66;6027643;28;20437;-65
2022/06/09 06:49:39;;;;;;;17.37;8.47;;;;;;;16.05;84.53;100399.00;6034799;28;20045;-65
2022/06/09 06:52:34;;;;;;;22.00;9.33;;;;;;;16.04;84.85;100409.88;6031047;28;20280;-65
2022/06/09 06:55:29;;;;;;;20.63;8.97;;;;;;;15.97;84.94;100417.00;6029795;28;20081;-65
2022/06/09 06:58:24;;;;;;;19.57;9.20;;;;;;;15.99;85.00;100420.31;6029744;28;20042;-64
2022/06/09 07:01:20;;;;;;;23.57;9.77;;;;;;;15.82;85.29;100410.84;6041200;28;20500;-65
2022/06/09 07:04:15;;;;;;;21.20;10.97;;;;;;;15.92;85.88;100417.59;6036322;28;20297;-65
2022/06/09 07:07:11;;;;;;;23.13;9.77;;;;;;;15.94;86.08;100417.38;6024038;28;20041;-65
2022/06/09 07:10:08;;;;;;;21.75;11.13;;;;;;;15.92;85.55;100430.97;6029791;28;20129;-65
2022/06/09 07:13:03;;;;;;;22.10;10.40;;;;;;;15.87;85.78;100424.50;6029579;28;20042;-65
2022/06/09 07:15:59;;;;;;;21.85;9.93;;;;;;;16.05;85.04;100433.78;6030570;28;20102;-65
2022/06/09 07:18:54;;;;;;;19.17;9.03;;;;;;;16.16;83.53;100434.28;6025674;28;20445;-65
2022/06/09 07:21:49;;;;;;;19.60;9.60;;;;;;;16.30;83.02;100433.44;6028744;28;20293;-65
2022/06/09 07:24:45;;;;;;;20.90;9.23;;;;;;;16.46;82.29;100435.88;6045949;28;20422;-65
2022/06/09 07:27:41;;;;;;;18.50;9.98;;;;;;;16.49;82.50;100448.88;6048760;28;20133;-65
2022/06/09 07:30:36;;;;;;;16.10;8.57;;;;;;;16.63;81.88;100451.50;6027708;28;20482;-65
2022/06/09 07:33:34;;;;;;;17.87;9.83;;;;;;;16.61;81.97;100458.91;6030420;28;20036;-65
2022/06/09 07:36:29;;;;;;;17.15;8.68;;;;;;;16.46;80.50;100459.94;6033413;28;20053;-65
2022/06/09 07:39:25;;;;;;;16.95;8.60;;;;;;;16.45;80.58;100459.13;6041843;28;20030;-65
2022/06/09 07:42:20;;;;;;;18.65;9.38;;;;;;;16.08;80.59;100457.47;6027104;28;20036;-65
2022/06/09 07:45:16;;;;;;;21.53;8.50;;;;;;;15.93;83.10;100458.50;6027837;28;20053;-65
2022/06/09 07:48:12;;;;;;;15.13;7.97;;;;;;;16.26;82.48;100461.56;6027981;28;20030;-65
2022/06/09 07:51:07;;;;;;;18.35;7.80;;;;;;;16.44;80.85;100465.47;6027167;28;20049;-65
2022/06/09 07:54:03;;;;;;;18.53;8.30;;;;;;;16.50;80.66;100474.59;6029439;28;20038;-65
2022/06/09 07:56:58;;;;;;;18.92;8.15;;;;;;;16.70;79.33;100478.34;6026195;28;20324;-65
2022/06/09 07:59:53;;;;;;;15.83;8.20;;;;;;;17.07;78.73;100479.91;6029007;28;20549;-65
2022/06/09 08:02:50;;;;;;;13.57;6.90;;;;;;;17.41;77.77;100477.28;6016840;28;20038;-65
2022/06/09 08:05:45;;;;;;;13.18;7.40;;;;;;;17.62;74.64;100485.28;6027790;28;20041;-65
2022/06/09 08:08:41;;;;;;;12.82;6.78;;;;;;;17.68;75.43;100489.03;6022245;28;20034;-65
2022/06/09 08:11:37;;;;;;;11.80;6.00;;;;;;;17.70;74.82;100495.03;6027471;28;20038;-65
2022/06/09 08:14:33;;;;;;;12.55;6.15;;;;;;;17.81;74.76;100506.03;6024757;28;20280;-65
2022/06/09 08:17:28;;;;;;;12.15;5.82;;;;;;;17.65;74.00;100495.63;6045899;28;20038;-65
2022/06/09 08:20:26;;;;;;;11.80;5.57;;;;;;;17.25;74.71;100499.03;6029399;28;20437;-65
2022/06/09 08:23:23;;;;;;;15.13;7.40;;;;;;;17.18;75.96;100501.66;6028825;28;20470;-65
2022/06/09 08:26:19;;;;;;;12.18;6.38;;;;;;;17.43;76.36;100507.41;6021941;28;20394;-64
2022/06/09 08:29:15;;;;;;;15.50;7.45;;;;;;;17.67;73.30;100507.00;6026508;28;20065;-64
2022/06/09 08:32:10;;;;;;;13.68;7.25;;;;;;;17.68;73.29;100523.91;6009504;28;20109;-64
2022/06/09 08:35:09;;;;;;;16.50;7.17;;;;;;;17.57;74.41;100521.78;6026172;28;20042;-65
2022/06/09 08:38:05;;;;;;;13.77;7.18;;;;;;;17.52;74.75;100524.19;6022977;28;20038;-65
2022/06/09 08:41:22;;;;;;;16.17;8.13;;;;;;;17.71;74.25;100524.34;6036651;28;20785;-65
2022/06/09 08:44:24;;;;;;;13.15;6.80;;;;;;;17.66;74.21;100524.13;6027316;28;20026;-66
2022/06/09 08:47:25;;;;;;;13.55;6.68;;;;;;;17.82;74.29;100534.53;6025953;28;20066;-64
2022/06/09 08:50:25;;;;;;;13.20;6.68;;;;;;;18.33;72.50;100528.78;6022763;28;20073;-65
2022/06/09 08:53:27;;;;;;;8.93;5.43;;;;;;;18.45;69.54;100535.25;6023531;28;20038;-65
2022/06/09 08:56:29;;;;;;;12.63;6.65;;;;;;;18.25;70.81;100545.91;6026864;28;20027;-65
2022/06/09 08:59:28;;;;;;;10.38;6.43;;;;;;;18.32;70.58;100530.66;6025561;28;20050;-64
2022/06/09 09:02:36;;;;;;;13.93;6.85;;;;;;;18.81;69.24;100541.16;6024576;28;20027;-64
2022/06/09 09:05:40;;;;;;;11.85;6.40;;;;;;;18.92;67.36;100537.88;6025676;28;20041;-64
2022/06/09 09:08:37;;;;;;;9.13;4.90;;;;;;;18.58;67.94;100539.84;6022479;28;20121;-64
2022/06/09 09:11:47;;;;;;;9.90;5.35;;;;;;;18.66;68.74;100545.88;6018158;28;20121;-64
2022/06/09 09:15:05;;;;;;;10.70;4.88;;;;;;;18.81;69.40;100557.28;6032680;28;20110;-65
2022/06/09 09:18:11;;;;;;;13.40;5.35;;;;;;;18.97;67.91;100548.81;6039401;28;20100;-64
2022/06/09 09:21:12;;;;;;;9.05;5.05;;;;;;;18.96;67.98;100566.00;6025562;28;20114;-64
2022/06/09 09:24:52;;;;;;;11.80;5.13;;;;;;;18.78;68.03;100556.88;6022873;28;20038;-64
2022/06/09 09:27:51;;;;;;;12.95;4.82;;;;;;;18.62;68.92;100558.03;5991793;28;20046;-65
2022/06/09 09:31:01;;;;;;;9.43;4.55;;;;;;;18.62;70.05;100563.41;6037539;28;20029;-65
2022/06/09 09:33:58;;;;;;;7.32;4.78;;;;;;;18.82;70.11;100574.22;6026142;28;20101;-64
2022/06/09 09:37:12;;;;;;;10.30;4.47;;;;;;;18.87;70.06;100566.38;6020012;28;20038;-65
2022/06/09 09:40:25;;;;;;;12.95;5.63;;;;;;;18.97;68.82;100578.41;6024165;28;20046;-65
2022/06/09 09:43:23;;;;;;;11.25;5.57;;;;;;;19.01;69.48;100571.59;6030578;28;20028;-65
2022/06/09 09:46:32;;;;;;;8.15;4.80;;;;;;;19.69;65.74;100571.44;6024572;28;20038;-65
2022/06/09 09:49:31;;;;;;;41.78;8.05;;;;;;;19.90;64.45;100580.09;6014082;28;20048;-65
2022/06/09 09:52:43;;;;;;;9.02;4.90;;;;;;;19.86;64.47;100576.19;6029581;28;20052;-65
2022/06/09 09:55:49;;;;;;;9.35;4.32;;;;;;;20.14;65.38;100582.13;6025652;28;20462;-64
2022/06/09 09:58:47;;;;;;;8.05;3.95;;;;;;;20.40;64.67;100591.19;6026099;28;20046;-65
2022/06/09 10:15:17;;;;;;;13.05;4.47;;;;;;;19.90;64.16;100577.41;6036345;28;20076;-65
2022/06/09 10:18:18;;;;;;;8.55;4.57;;;;;;;20.20;65.10;100577.75;6048356;28;20084;-65
2022/06/09 10:21:14;;;;;;;9.27;4.15;;;;;;;20.69;61.26;100577.16;6033830;28;20051;-65
2022/06/09 10:24:09;;;;;;;8.65;4.40;;;;;;;21.13;59.85;100589.81;6034487;28;20056;-65
2022/06/09 10:27:05;;;;;;;7.03;3.85;;;;;;;21.55;59.29;100585.56;6032845;28;20470;-65
2022/06/09 10:30:11;;;;;;;11.85;3.50;;;;;;;21.64;59.67;100584.22;6028955;28;20062;-65
2022/06/09 10:33:20;;;;;;;10.02;4.18;;;;;;;21.00;60.43;100596.09;6055250;28;20034;-65
2022/06/09 10:36:32;;;;;;;8.77;5.03;;;;;;;21.41;58.78;100600.19;6025500;28;20065;-66
2022/06/09 10:39:43;;;;;;;7.97;3.83;;;;;;;21.92;59.32;100598.13;6022749;28;20038;-65
2022/06/09 10:42:46;;;;;;;6.00;3.40;;;;;;;21.41;58.14;100600.19;6030579;28;20073;-66
2022/06/09 10:45:45;;;;;;;8.23;3.83;;;;;;;21.22;59.83;100616.31;6027292;28;20485;-65
2022/06/09 10:55:42;;;;;;;9.00;3.95;;;;;;;22.03;55.07;100594.69;6030969;28;20038;-65
2022/06/09 10:59:12;;;;;;;7.20;3.38;;;;;;;22.05;56.08;100607.94;6022997;28;20037;-65
2022/06/09 11:02:14;;;;;;;7.50;3.78;;;;;;;21.77;56.98;100601.13;5997885;28;20394;-65
2022/06/09 11:05:14;;;;;;;7.63;4.07;;;;;;;22.10;56.59;100603.53;6023872;28;20150;-65
2022/06/09 11:08:27;;;;;;;10.98;4.43;;;;;;;21.92;56.75;100604.34;6021806;28;20045;-66
2022/06/09 11:11:49;;;;;;;8.05;3.95;;;;;;;22.01;56.10;100610.28;6046665;28;20485;-66
2022/06/09 11:14:58;;;;;;;8.50;3.47;;;;;;;22.11;54.28;100615.16;6018224;28;20050;-65
2022/06/09 11:18:12;;;;;;;5.68;2.70;;;;;;;22.45;52.20;100615.41;6027867;28;20034;-66
2022/06/09 11:21:34;;;;;;;7.57;2.97;;;;;;;22.25;52.51;100617.53;6028592;28;20042;-65
2022/06/09 11:24:38;;;;;;;4.95;3.00;;;;;;;21.94;53.70;100614.91;6026395;28;20474;-65
2022/06/09 11:27:45;;;;;;;4.72;3.03;;;;;;;21.72;56.05;100610.94;6029927;28;20050;-65
2022/06/09 11:31:04;;;;;;;6.22;3.20;;;;;;;22.32;54.54;100617.44;6039791;28;20444;-66
2022/06/09 11:34:18;;;;;;;6.78;2.80;;;;;;;21.85;55.12;100625.13;6033322;28;20464;-66
2022/06/09 11:37:48;;;;;;;6.85;3.72;;;;;;;22.06;55.97;100621.25;6029222;28;20497;-66
2022/06/09 11:41:12;;;;;;;6.82;2.72;;;;;;;22.20;51.19;100628.19;6028147;28;20552;-65
2022/06/09 11:44:14;;;;;;;7.10;2.60;;;;;;;22.80;51.03;100618.31;6045450;28;20478;-66
2022/06/09 11:47:13;;;;;;;4.65;2.58;;;;;;;22.88;50.24;100618.00;6025413;28;20034;-66
2022/06/09 11:50:08;;;;;;;5.45;3.17;;;;;;;22.44;52.33;100621.03;6025175;28;20030;-66
2022/06/09 11:53:04;;;;;;;6.38;3.05;;;;;;;22.19;53.20;100622.97;6026257;28;20038;-65
2022/06/09 11:56:33;;;;;;;4.80;3.17;;;;;;;22.20;54.96;100628.19;6028548;28;20100;-65
2022/06/09 11:59:57;;;;;;;5.72;2.83;;;;;;;21.78;55.23;100637.06;6026078;28;20030;-66
2022/06/09 12:03:26;;;;;;;5.75;3.97;;;;;;;21.50;56.74;100639.38;6025633;28;20141;-65
2022/06/09 12:07:11;;;;;;;6.32;3.25;;;;;;;20.97;56.73;100653.16;6025804;28;20026;-66
2022/06/09 12:10:28;;;;;;;5.78;2.67;;;;;;;20.86;57.81;100656.50;6027722;28;20048;-65
2022/06/09 12:13:34;;;;;;;9.48;3.17;;;;;;;21.15;57.08;100655.13;6026314;28;20038;-65
2022/06/09 12:16:29;;;;;;;;;;;;;;;21.68;56.95;100661.03;6026553;28;20053;-65
2022/06/09 12:19:31;;;;;;;5.40;2.67;;;;;;;21.54;57.54;100649.50;6028221;28;19913;-65
2022/06/09 12:22:44;;;;;;;8.82;2.92;;;;;;;21.70;56.43;100670.56;6026580;28;20105;-65
2022/06/09 12:25:40;;;;;;;5.60;2.90;;;;;;;21.04;56.86;100661.19;6026329;28;20450;-65
2022/06/09 12:28:54;;;;;;;4.27;2.43;;;;;;;21.85;56.46;100673.75;6024481;28;20042;-66
2022/06/09 12:32:13;;;;;;;5.07;2.22;;;;;;;21.92;52.86;100673.72;6026832;28;20046;-65
2022/06/09 12:35:22;;;;;;;7.22;3.10;;;;;;;22.51;54.73;100673.97;6009833;28;20042;-65
2022/06/09 12:38:26;;;;;;;7.85;3.88;;;;;;;23.09;52.21;100665.41;6027182;28;20516;-65
2022/06/09 12:41:34;;;;;;;7.15;2.70;;;;;;;23.82;51.35;100670.56;6026288;28;20034;-65
2022/06/09 12:44:32;;;;;;;5.57;3.38;;;;;;;23.88;50.17;100675.06;6026141;28;20125;-65
2022/06/09 12:47:27;;;;;;;6.75;3.15;;;;;;;24.00;49.83;100689.44;6027393;28;20030;-66
2022/06/09 12:50:40;;;;;;;6.33;2.93;;;;;;;24.17;49.26;100679.59;6026893;28;20034;-65
2022/06/09 12:53:39;;;;;;;7.15;3.20;;;;;;;24.27;50.28;100668.97;6026424;28;20042;-65
2022/06/09 12:56:41;;;;;;;7.30;3.20;;;;;;;24.14;49.90;100685.47;6027747;28;20034;-65
2022/06/09 12:59:39;;;;;;;6.53;3.22;;;;;;;23.44;50.56;100682.63;6027506;28;20073;-65
2022/06/09 13:02:38;;;;;;;5.90;3.25;;;;;;;23.27;52.52;100688.88;6025863;28;20034;-65
2022/06/09 13:05:36;;;;;;;8.23;3.10;;;;;;;22.96;53.05;100707.00;6027092;28;20049;-65
2022/06/09 13:08:31;;;;;;;9.25;3.85;;;;;;;23.26;53.70;100709.72;6034525;28;20037;-65
2022/06/09 13:14:54;;;;;;;5.75;2.50;;;;;;;24.02;49.13;100703.59;6040437;28;20482;-65
2022/06/09 13:17:50;;;;;;;4.80;2.73;;;;;;;23.79;48.17;100701.66;6024817;28;20038;-65
2022/06/09 13:20:51;;;;;;;6.72;3.05;;;;;;;23.83;47.97;100699.31;6025523;28;20769;-65
2022/06/09 13:23:52;;;;;;;5.65;2.85;;;;;;;23.63;48.43;100715.88;6026327;28;20057;-65
2022/06/09 13:26:49;;;;;;;7.07;2.90;;;;;;;23.17;50.91;100721.91;6041577;28;20046;-65
2022/06/09 13:30:03;;;;;;;6.47;3.08;;;;;;;22.41;52.31;100711.53;6026438;28;20030;-65
2022/06/09 13:32:58;;;;;;;8.32;3.40;;;;;;;21.81;54.56;100715.75;6024025;28;20034;-65
2022/06/09 13:36:19;;;;;;;4.63;3.17;;;;;;;22.04;55.15;100715.16;6026168;28;20096;-65
2022/06/09 13:39:32;;;;;;;9.05;3.35;;;;;;;23.04;54.28;100720.22;6041962;28;20025;-65
2022/06/09 13:42:29;;;;;;;8.10;4.43;;;;;;;22.93;52.11;100720.13;6027461;28;20129;-65
2022/06/09 13:45:34;;;;;;;6.63;3.03;;;;;;;22.44;51.54;100727.28;6021123;28;20045;-65
2022/06/09 13:48:53;;;;;;;6.57;3.30;;;;;;;22.05;53.88;100729.50;6022099;28;20089;-66
2022/06/09 13:52:05;;;;;;;5.40;3.00;;;;;;;21.50;53.29;100726.53;6024673;28;20437;-65
2022/06/09 13:55:02;;;;;;;4.30;2.25;;;;;;;21.88;54.53;100723.81;6013942;28;20045;-66
2022/06/09 13:57:58;;;;;;;6.55;2.33;;;;;;;22.63;51.58;100732.72;6026945;28;20121;-65
2022/06/09 14:00:55;;;;;;;4.45;2.17;;;;;;;23.65;48.90;100730.84;6031417;28;20040;-66
2022/06/09 14:03:51;;;;;;;4.93;2.58;;;;;;;24.17;48.25;100731.91;6049999;28;20488;-65
2022/06/09 14:06:46;;;;;;;5.97;2.17;;;;;;;24.03;47.14;100735.88;6049228;28;20042;-65
2022/06/09 14:09:42;;;;;;;1.80;1.40;;;;;;;24.40;44.86;100733.81;6034075;28;20433;-65
2022/06/09 14:12:37;;;;;;;3.67;1.60;;;;;;;23.79;44.87;100734.16;6047906;28;20611;-65
2022/06/09 14:15:34;;;;;;;4.63;1.87;;;;;;;23.75;43.43;100740.28;6042762;28;20376;-65
2022/06/09 14:18:32;;;;;;;5.03;2.08;;;;;;;24.48;42.63;100740.75;6038523;28;20273;-65
2022/06/09 14:21:29;;;;;;;3.90;1.73;;;;;;;24.78;42.67;100734.16;6015769;28;20061;-65
2022/06/09 14:24:25;;;;;;;2.33;1.65;;;;;;;24.51;43.06;100741.13;6021037;28;20037;-66